createdAt,value
2023-03-21T00:05:13.476Z,13.07
2023-03-21T00:10:37.002Z,12.50
2023-03-21T00:16:17.011Z,13.20
2023-03-21T00:27:06.020Z,12.63
2023-03-21T00:32:23.848Z,11.50
2023-03-21T00:37:30.322Z,11.40
2023-03-21T00:42:38.672Z,11.27
2023-03-21T00:47:45.306Z,11.80
2023-03-21T00:52:52.090Z,11.30
2023-03-21T00:58:02.382Z,11.25
2023-03-21T01:03:23.573Z,11.82
2023-03-21T01:08:44.507Z,11.77
2023-03-21T01:14:14.814Z,12.50
2023-03-21T01:19:44.738Z,11.45
2023-03-21T01:30:23.993Z,9.50
2023-03-21T01:35:37.457Z,9.68
2023-03-21T01:40:49.928Z,8.90
2023-03-21T01:46:47.751Z,9.18
2023-03-21T01:52:23.579Z,8.80
2023-03-21T01:57:52.133Z,8.93
2023-03-21T02:03:15.310Z,8.55
2023-03-21T02:08:39.950Z,8.65
2023-03-21T02:14:01.136Z,8.70
2023-03-21T02:20:12.223Z,8.02
2023-03-21T02:25:47.522Z,6.82
2023-03-21T02:31:20.451Z,7.45
2023-03-21T02:36:54.783Z,7.57
2023-03-21T02:42:09.955Z,7.57
2023-03-21T02:47:23.777Z,7.68
2023-03-21T02:52:39.492Z,8.13
2023-03-21T02:57:53.362Z,7.13
2023-03-21T03:03:09.285Z,6.97
2023-03-21T03:08:43.063Z,7.47
2023-03-21T03:15:02.620Z,7.07
2023-03-21T03:20:22.419Z,7.57
2023-03-21T03:25:42.445Z,8.00
2023-03-21T03:31:07.623Z,7.80
2023-03-21T03:36:33.250Z,7.60
2023-03-21T03:42:27.069Z,7.47
2023-03-21T03:47:47.725Z,6.75
2023-03-21T03:53:16.340Z,6.90
2023-03-21T03:58:43.001Z,7.03
2023-03-21T04:04:01.006Z,6.97
2023-03-21T04:09:21.848Z,7.47
2023-03-21T04:14:43.784Z,6.93
2023-03-21T04:19:59.976Z,7.32
2023-03-21T04:25:19.001Z,6.88
2023-03-21T04:30:36.348Z,6.88
2023-03-21T04:35:49.596Z,7.03
2023-03-21T04:40:58.015Z,6.93
2023-03-21T04:46:06.984Z,7.00
2023-03-21T04:56:20.148Z,7.20
2023-03-21T05:01:31.196Z,6.93
2023-03-21T05:06:38.441Z,7.22
2023-03-21T05:11:45.383Z,7.25
2023-03-21T05:16:59.555Z,7.20
2023-03-21T05:22:10.411Z,7.30
2023-03-21T05:27:34.530Z,6.75
2023-03-21T05:32:45.109Z,7.53
2023-03-21T05:37:52.206Z,6.07
2023-03-21T05:43:00.514Z,6.85
2023-03-21T05:48:09.881Z,6.65
2023-03-21T05:53:32.190Z,6.60
2023-03-21T05:58:39.827Z,7.20
2023-03-21T06:03:47.774Z,7.15
2023-03-21T06:09:01.648Z,6.82
2023-03-21T06:14:10.568Z,7.00
2023-03-21T06:19:19.730Z,6.75
2023-03-21T06:24:46.613Z,6.23
2023-03-21T06:29:58.312Z,6.50
2023-03-21T06:35:08.640Z,7.47
2023-03-21T06:45:32.513Z,7.30
2023-03-21T06:50:41.048Z,7.53
2023-03-21T06:55:52.282Z,6.35
2023-03-21T07:01:02.125Z,7.30
2023-03-21T07:06:14.725Z,6.30
2023-03-21T07:11:22.633Z,6.95
2023-03-21T07:16:29.537Z,7.97
2023-03-21T07:21:37.938Z,6.25
2023-03-21T07:26:49.776Z,6.25
2023-03-21T07:31:56.401Z,6.50
2023-03-21T07:37:04.125Z,6.75
2023-03-21T07:42:12.336Z,5.95
2023-03-21T07:52:30.626Z,5.50
2023-03-21T07:57:38.377Z,6.10
2023-03-21T08:02:45.097Z,4.70
2023-03-21T08:07:53.434Z,5.22
2023-03-21T08:12:59.992Z,4.40
2023-03-21T08:18:06.721Z,4.78
2023-03-21T08:23:15.378Z,5.15
2023-03-21T08:28:23.058Z,4.95
2023-03-21T08:33:29.319Z,4.90
2023-03-21T08:38:37.294Z,5.90
2023-03-21T08:43:44.737Z,5.43
2023-03-21T08:48:51.884Z,6.00
2023-03-21T08:54:00.038Z,5.43
2023-03-21T08:59:06.495Z,5.97
2023-03-21T09:04:13.048Z,6.50
2023-03-21T09:09:21.192Z,6.88
2023-03-21T09:14:28.991Z,7.03
2023-03-21T09:19:36.355Z,6.60
2023-03-21T09:24:47.669Z,6.18
2023-03-21T09:29:54.335Z,5.80
2023-03-21T09:35:05.847Z,4.53
2023-03-21T09:40:21.784Z,4.00
2023-03-21T09:45:39.457Z,5.28
2023-03-21T09:50:46.962Z,4.75
2023-03-21T09:55:57.661Z,4.43
2023-03-21T10:01:22.558Z,4.00
2023-03-21T10:06:32.157Z,3.65
2023-03-21T10:11:46.486Z,4.45
2023-03-21T10:16:58.276Z,4.90
2023-03-21T10:22:04.881Z,5.28
2023-03-21T10:27:14.961Z,3.72
2023-03-21T10:32:24.436Z,2.83
2023-03-21T10:37:31.021Z,3.42
2023-03-21T10:42:39.024Z,6.80
2023-03-21T10:47:52.145Z,3.17
2023-03-21T10:53:01.805Z,3.10
2023-03-21T10:58:19.198Z,2.60
2023-03-21T11:03:31.621Z,2.47
2023-03-21T11:08:43.475Z,3.45
2023-03-21T11:14:00.598Z,3.00
2023-03-21T11:19:17.374Z,2.88
2023-03-21T11:24:24.996Z,2.63
2023-03-21T11:29:37.076Z,3.00
2023-03-21T11:34:50.969Z,3.03
2023-03-21T11:40:07.208Z,2.92
2023-03-21T11:45:19.303Z,3.10
2023-03-21T11:50:39.082Z,2.60
2023-03-21T11:56:02.176Z,2.53
2023-03-21T12:01:21.416Z,3.22
2023-03-21T12:06:36.728Z,3.47
2023-03-21T12:11:59.528Z,2.00
2023-03-21T12:17:26.024Z,2.92
2023-03-21T12:22:42.254Z,2.72
2023-03-21T12:28:04.000Z,2.53
2023-03-21T12:33:43.543Z,2.38
2023-03-21T12:39:01.642Z,2.50
2023-03-21T12:44:13.151Z,3.13
2023-03-21T12:49:28.013Z,3.40
2023-03-21T12:54:40.861Z,2.97
2023-03-21T12:59:56.351Z,3.05
2023-03-21T13:05:18.726Z,3.25
2023-03-21T13:10:26.204Z,2.95
2023-03-21T13:16:07.284Z,3.00
2023-03-21T13:21:20.105Z,3.15
2023-03-21T13:26:40.047Z,3.10
2023-03-21T13:31:54.146Z,3.20
2023-03-21T13:37:04.720Z,2.72
2023-03-21T13:42:24.025Z,3.15
2023-03-21T13:47:52.558Z,2.97
2023-03-21T13:53:38.310Z,2.65
2023-03-21T13:59:01.841Z,3.47
2023-03-21T14:04:19.468Z,3.35
2023-03-21T14:09:35.651Z,3.63
2023-03-21T14:14:46.012Z,3.10
2023-03-21T14:19:55.489Z,3.47
2023-03-21T14:25:06.087Z,3.20
2023-03-21T14:30:21.892Z,3.55
2023-03-21T14:35:33.039Z,2.88
2023-03-21T14:40:50.025Z,2.78
2023-03-21T14:45:59.264Z,2.72
2023-03-21T14:51:09.728Z,3.55
2023-03-21T14:56:25.612Z,4.18
2023-03-21T15:01:35.419Z,3.33
2023-03-21T15:06:57.316Z,3.28
2023-03-21T15:12:11.053Z,2.92
2023-03-21T15:17:19.493Z,3.35
2023-03-21T15:22:33.991Z,3.58
2023-03-21T15:27:44.176Z,3.63
2023-03-21T15:32:51.594Z,3.92
2023-03-21T15:38:00.640Z,3.97
2023-03-21T15:48:27.098Z,2.90
2023-03-21T15:53:36.531Z,3.38
2023-03-21T15:58:47.478Z,3.83
2023-03-21T16:03:59.896Z,3.80
2023-03-21T16:09:14.609Z,2.85
2023-03-21T16:14:24.035Z,3.35
2023-03-21T16:19:31.291Z,3.30
2023-03-21T16:24:38.088Z,3.90
2023-03-21T16:29:46.543Z,4.45
2023-03-21T16:34:56.693Z,2.92
2023-03-21T16:40:06.094Z,3.08
2023-03-21T16:45:14.883Z,3.20
2023-03-21T16:50:28.276Z,3.88
2023-03-21T16:55:38.610Z,4.10
2023-03-21T17:00:48.075Z,3.75
2023-03-21T17:05:55.549Z,3.80
2023-03-21T17:11:06.797Z,3.75
2023-03-21T17:16:18.162Z,3.63
2023-03-21T17:21:28.038Z,3.85
2023-03-21T17:26:35.038Z,3.45
2023-03-21T17:31:47.750Z,3.70
2023-03-21T17:36:54.771Z,3.50
2023-03-21T17:42:04.866Z,4.18
2023-03-21T17:47:15.461Z,13.90
2023-03-21T17:52:24.651Z,18.52
2023-03-21T17:57:33.635Z,15.05
2023-03-21T18:08:09.586Z,15.23
2023-03-21T18:13:19.102Z,13.27
2023-03-21T18:18:29.507Z,12.98
2023-03-21T18:23:41.102Z,14.43
2023-03-21T18:29:47.484Z,22.10
2023-03-21T18:34:30.846Z,21.75
2023-03-21T18:39:40.717Z,22.17
2023-03-21T18:44:49.843Z,27.45
2023-03-21T18:50:16.264Z,17.02
2023-03-21T18:55:44.450Z,13.90
2023-03-21T19:01:00.831Z,23.90
2023-03-21T19:06:16.343Z,17.98
2023-03-21T19:11:34.154Z,19.58
2023-03-21T19:22:14.532Z,21.35
2023-03-21T19:27:23.834Z,22.17
2023-03-21T19:32:33.801Z,25.98
2023-03-21T19:37:44.677Z,19.90
2023-03-21T19:42:54.542Z,19.60
2023-03-21T19:48:06.527Z,21.98
2023-03-21T19:53:20.211Z,21.05
2023-03-21T19:58:30.307Z,22.75
2023-03-21T20:03:39.431Z,16.45
2023-03-21T20:14:23.540Z,11.93
2023-03-21T20:19:33.805Z,14.35
2023-03-21T20:24:46.164Z,21.75
2023-03-21T20:30:11.064Z,18.48
2023-03-21T20:35:47.975Z,12.98
2023-03-21T20:40:52.233Z,16.98
2023-03-21T20:46:09.045Z,15.65
2023-03-21T20:56:54.708Z,14.98
2023-03-21T21:02:04.285Z,11.48
2023-03-21T21:07:16.949Z,12.32
2023-03-21T21:12:29.206Z,13.63
2023-03-21T21:18:04.041Z,13.05
2023-03-21T21:23:09.582Z,14.60
2023-03-21T21:28:19.110Z,14.98
2023-03-21T21:38:35.228Z,13.55
2023-03-21T21:43:43.565Z,15.65
2023-03-21T21:48:51.247Z,16.25
2023-03-21T21:53:58.424Z,15.52
2023-03-21T21:59:06.903Z,15.10
2023-03-21T22:04:18.422Z,15.32
2023-03-21T22:09:25.578Z,16.85
2023-03-21T22:14:33.440Z,17.27
2023-03-21T22:19:40.366Z,16.10
2023-03-21T22:24:47.021Z,16.55
2023-03-21T22:29:55.027Z,18.88
2023-03-21T22:35:02.744Z,19.95
2023-03-21T22:40:14.145Z,18.73
2023-03-21T22:45:22.514Z,19.35
2023-03-21T22:50:29.698Z,19.03
2023-03-21T22:55:36.808Z,18.23
2023-03-21T23:00:44.876Z,22.58
2023-03-21T23:05:51.696Z,24.67
2023-03-21T23:10:58.769Z,25.75
2023-03-21T23:16:08.992Z,21.85
2023-03-21T23:21:16.944Z,22.58
2023-03-21T23:26:25.661Z,23.33
2023-03-21T23:31:34.605Z,23.47
2023-03-21T23:36:41.540Z,24.73
2023-03-21T23:41:48.433Z,23.23
2023-03-21T23:46:56.951Z,23.42
2023-03-21T23:52:03.433Z,19.85
2023-03-21T23:57:09.913Z,23.25
